Time;durP1;ratioP1;P1;durP2;ratioP2;P2;SDS_P1;SDS_P2;PMS_P1;PMS_P2;Temp;Humidity;BMP_temperature;BMP_pressure;BME280_temperature;BME280_humidity;BME280_pressure;Samples;Min_cycle;Max_cycle;Signal;HPM_P1;HPM_P2
2022/06/15 00:01:46;;;;;;;23.23;7.40;;;;;;;22.87;86.65;101146.66;6131736;23;20473;-90
2022/06/15 00:04:22;;;;;;;22.00;7.83;;;;;;;22.80;86.98;101146.84;6107494;23;20471;-90
2022/06/15 00:06:50;;;;;;;33.10;7.67;;;;;;;22.84;87.62;101164.75;6130664;23;20470;-90
2022/06/15 00:09:18;;;;;;;21.43;6.93;;;;;;;22.77;87.53;101188.31;6083821;23;20413;-90
2022/06/15 00:11:50;;;;;;;24.07;7.63;;;;;;;22.74;87.91;101165.44;6107191;23;20491;-90
2022/06/15 00:14:27;;;;;;;21.70;7.73;;;;;;;22.68;89.32;101149.78;6131577;23;20739;-90
2022/06/15 00:16:58;;;;;;;29.70;8.07;;;;;;;22.67;89.67;101091.53;6155742;23;20400;-90
2022/06/15 00:19:28;;;;;;;26.87;8.33;;;;;;;22.63;89.66;101085.66;6131353;23;20416;-90
2022/06/15 00:22:09;;;;;;;45.70;8.60;;;;;;;22.55;90.21;101054.63;6095624;23;20436;-90
2022/06/15 00:24:36;;;;;;;26.03;7.30;;;;;;;22.49;90.82;101045.41;6107142;23;20409;-89
2022/06/15 00:27:07;;;;;;;23.10;8.50;;;;;;;22.43;91.61;101145.91;6107196;23;20433;-89
2022/06/15 00:29:37;;;;;;;20.70;7.47;;;;;;;22.43;92.61;101124.47;6131256;23;20473;-90
2022/06/15 00:32:08;;;;;;;32.60;8.33;;;;;;;22.49;93.84;101147.66;6127275;23;20508;-90
2022/06/15 00:34:37;;;;;;;27.90;7.33;;;;;;;22.48;94.06;101146.81;6133508;23;20384;-90
2022/06/15 00:37:08;;;;;;;23.90;8.00;;;;;;;22.56;93.82;101160.25;6136577;23;20414;-89
2022/06/15 00:39:43;;;;;;;28.07;7.40;;;;;;;22.63;94.12;101169.25;6137229;23;20408;-90
2022/06/15 00:42:20;;;;;;;20.20;7.90;;;;;;;22.66;94.70;101193.81;6136765;23;20817;-91
2022/06/15 00:44:57;;;;;;;20.03;7.50;;;;;;;22.73;95.59;101225.06;6149452;23;20478;-90
2022/06/15 00:47:28;;;;;;;23.03;7.47;;;;;;;22.71;94.92;101237.56;6150008;23;20503;-90
2022/06/15 00:50:06;;;;;;;30.53;8.33;;;;;;;22.73;94.51;101213.91;6150298;23;20411;-90
2022/06/15 00:52:54;;;;;;;25.80;8.40;;;;;;;22.71;94.37;101246.78;6138586;23;20418;-91
2022/06/15 00:55:29;;;;;;;28.23;8.10;;;;;;;22.65;94.49;101217.19;6161071;23;20937;-90
2022/06/15 00:58:06;;;;;;;21.33;7.23;;;;;;;22.62;94.46;101194.59;6136443;23;20743;-90
2022/06/15 01:00:40;;;;;;;26.03;7.63;;;;;;;22.61;93.83;101231.91;6137393;23;20395;-91
2022/06/15 01:03:13;;;;;;;23.10;7.67;;;;;;;22.56;93.60;101196.47;6137371;23;20933;-90
2022/06/15 01:06:34;;;;;;;29.63;8.00;;;;;;;22.56;93.86;101207.59;6137466;23;20388;-90
2022/06/15 01:09:18;;;;;;;25.80;8.67;;;;;;;22.51;93.69;101224.28;6025522;23;20437;-91
2022/06/15 01:12:16;;;;;;;26.50;9.00;;;;;;;22.53;94.32;101219.28;6072291;23;20409;-91
2022/06/15 01:15:09;;;;;;;36.87;8.70;;;;;;;22.53;94.66;101169.13;6095587;23;20410;-89
2022/06/15 01:18:05;;;;;;;35.37;8.80;;;;;;;22.51;94.69;101221.50;6096188;23;20506;-90
2022/06/15 01:20:57;;;;;;;33.60;8.03;;;;;;;22.50;94.62;101185.53;6072321;23;20474;-90
2022/06/15 01:23:57;;;;;;;38.40;8.27;;;;;;;22.48;94.69;101216.44;6095624;23;20445;-90
2022/06/15 01:26:50;;;;;;;33.47;8.80;;;;;;;22.45;95.02;101189.13;5983676;24;20964;-91
2022/06/15 01:29:45;;;;;;;34.17;9.13;;;;;;;22.50;95.20;101133.47;5983539;24;20447;-90
2022/06/15 01:32:18;;;;;;;26.83;7.47;;;;;;;22.42;94.37;101147.00;5982947;24;20465;-90
2022/06/15 01:34:52;;;;;;;33.97;8.50;;;;;;;22.28;94.32;101150.22;5961074;24;20390;-90
2022/06/15 01:37:49;;;;;;;23.00;7.57;;;;;;;22.40;94.55;101175.13;5983703;24;20827;-90
2022/06/15 01:40:28;;;;;;;21.27;7.33;;;;;;;22.36;94.14;101149.72;5983818;24;20497;-90
2022/06/15 01:43:06;;;;;;;25.23;8.50;;;;;;;22.34;93.68;101143.56;5983031;24;20509;-90
2022/06/15 01:45:35;;;;;;;23.17;7.20;;;;;;;22.34;93.15;101156.66;6067985;23;20417;-90
2022/06/15 01:48:07;;;;;;;30.30;8.77;;;;;;;22.32;92.91;101139.41;5999064;23;20442;-90
2022/06/15 01:50:39;;;;;;;21.67;8.13;;;;;;;22.23;92.75;101135.38;6022795;23;20481;-90
2022/06/15 01:53:20;;;;;;;26.90;8.63;;;;;;;22.16;92.75;101118.03;6022352;23;20824;-90
2022/06/15 01:56:02;;;;;;;30.17;7.67;;;;;;;22.19;92.55;101150.94;6022270;23;20390;-90
2022/06/15 01:58:30;;;;;;;24.37;7.77;;;;;;;22.00;92.89;101147.63;6044503;23;20426;-90
2022/06/15 02:01:14;;;;;;;16.40;6.87;;;;;;;21.91;93.73;101136.09;5998030;23;20965;-90
2022/06/15 02:07:14;;;;;;;22.67;7.40;;;;;;;21.84;94.19;101129.88;6190172;23;20443;-94
2022/06/15 02:20:27;;;;;;;25.03;8.93;;;;;;;21.64;94.94;101065.63;6189569;23;20376;-94
2022/06/15 02:22:59;;;;;;;33.13;7.13;;;;;;;21.66;95.42;101071.78;6168389;23;20407;-95
2022/06/15 02:37:09;;;;;;;27.37;7.30;;;;;;;21.44;96.58;101082.91;6188412;23;20412;-94
2022/06/15 02:43:27;;;;;;;22.77;6.93;;;;;;;21.34;97.73;101082.78;6191615;23;20384;-94
2022/06/15 02:46:24;;;;;;;17.07;5.90;;;;;;;21.40;97.76;101092.00;6118942;23;20470;-96
2022/06/15 02:48:53;;;;;;;29.73;7.23;;;;;;;21.29;98.50;101079.91;6168166;23;20388;-96
2022/06/15 02:55:45;;;;;;;23.83;6.00;;;;;;;21.44;98.02;101115.44;6194357;23;20379;-93
2022/06/15 02:58:33;;;;;;;24.13;6.57;;;;;;;21.43;97.89;101124.88;6166993;23;20415;-94
2022/06/15 03:01:13;;;;;;;23.80;7.10;;;;;;;21.38;98.27;101106.16;6163877;23;20411;-94
2022/06/15 03:04:20;;;;;;;28.63;8.10;;;;;;;21.46;97.53;101096.53;6141158;23;20462;-94
2022/06/15 03:06:52;;;;;;;22.63;7.27;;;;;;;21.38;97.74;101068.06;6167203;23;20443;-94
2022/06/15 03:09:57;;;;;;;23.13;6.90;;;;;;;21.38;98.13;101084.75;6164931;23;20500;-96
2022/06/15 03:12:33;;;;;;;38.53;8.13;;;;;;;21.49;98.11;101101.59;6076808;23;20410;-94
2022/06/15 03:15:12;;;;;;;23.43;8.20;;;;;;;21.50;98.19;101103.28;6075486;23;20462;-94
2022/06/15 03:21:23;;;;;;;28.37;7.73;;;;;;;21.48;98.01;101105.47;6099701;23;20465;-95
2022/06/15 03:23:51;;;;;;;24.40;7.93;;;;;;;21.49;97.91;101098.81;6042723;23;20427;-93
2022/06/15 03:30:11;;;;;;;16.03;6.07;;;;;;;21.34;97.91;101099.47;6124889;23;20408;-94
2022/06/15 03:37:05;;;;;;;16.40;6.43;;;;;;;21.51;98.03;101121.66;6131775;23;20430;-95
2022/06/15 03:39:36;;;;;;;31.43;7.27;;;;;;;21.51;98.04;101107.75;6214142;23;20388;-94
2022/06/15 03:42:13;;;;;;;27.07;8.00;;;;;;;21.45;98.11;101100.44;6141325;23;20399;-94
2022/06/15 03:44:41;;;;;;;23.47;8.00;;;;;;;21.40;97.96;101083.66;6165889;23;20415;-92
2022/06/15 03:47:27;;;;;;;29.60;7.27;;;;;;;21.38;97.86;101087.53;6165165;23;20432;-92
2022/06/15 03:49:58;;;;;;;24.50;7.93;;;;;;;21.43;98.21;101085.94;6171749;23;20400;-93
2022/06/15 03:52:26;;;;;;;31.97;6.90;;;;;;;21.45;98.23;101072.63;6188806;23;20396;-94
2022/06/15 03:54:54;;;;;;;23.40;6.97;;;;;;;21.42;97.55;101062.00;6164614;23;20396;-94
2022/06/15 03:57:23;;;;;;;29.30;8.30;;;;;;;21.35;98.31;101063.06;6141192;23;20431;-94
2022/06/15 04:00:19;;;;;;;23.53;7.07;;;;;;;21.42;98.09;101062.00;6136154;23;20412;-94
2022/06/15 04:03:33;;;;;;;33.50;7.87;;;;;;;21.41;97.96;101065.88;6162047;23;20436;-96
2022/06/15 04:06:23;;;;;;;26.83;7.73;;;;;;;21.34;98.09;101050.25;6162385;23;20454;-95
2022/06/15 04:12:55;;;;;;;30.43;7.77;;;;;;;21.24;98.84;101044.53;6187887;23;20766;-94
2022/06/15 04:15:36;;;;;;;21.00;6.63;;;;;;;21.28;98.65;101028.19;6113131;23;20412;-94
2022/06/15 04:21:59;;;;;;;20.87;6.67;;;;;;;21.25;98.29;101031.47;6187389;23;20707;-95
2022/06/15 04:28:52;;;;;;;22.40;7.63;;;;;;;21.23;98.61;101017.81;6187205;23;20451;-95
2022/06/15 04:31:26;;;;;;;21.90;7.47;;;;;;;21.13;98.42;101008.50;6160851;23;20455;-95
2022/06/15 04:34:31;;;;;;;26.47;7.50;;;;;;;21.23;98.88;101015.03;6136793;23;20903;-94
2022/06/15 04:37:49;;;;;;;29.50;7.07;;;;;;;21.25;98.25;101010.06;6160437;23;20447;-95
2022/06/15 04:44:17;;;;;;;26.03;6.30;;;;;;;21.06;98.65;100971.69;6187427;23;20432;-95
2022/06/15 04:47:43;;;;;;;27.20;6.90;;;;;;;21.04;99.26;100988.63;6160835;23;20439;-94
2022/06/15 04:50:39;;;;;;;32.73;7.17;;;;;;;21.08;99.24;100995.34;6072770;23;20477;-94
2022/06/15 04:53:08;;;;;;;26.90;6.47;;;;;;;20.98;99.32;100997.97;6096318;23;20482;-95
2022/06/15 04:55:37;;;;;;;31.10;7.50;;;;;;;21.06;99.16;101022.56;6072704;23;20414;-95
2022/06/15 04:58:47;;;;;;;25.20;7.30;;;;;;;21.11;99.38;101036.53;6048881;23;20422;-96
2022/06/15 05:12:01;;;;;;;22.30;6.17;;;;;;;21.10;98.55;101015.41;6187095;23;20379;-94
2022/06/15 05:14:47;;;;;;;24.20;7.43;;;;;;;21.20;98.83;101020.28;6136418;23;20446;-94
2022/06/15 05:17:31;;;;;;;22.30;7.00;;;;;;;21.12;98.95;101013.22;6161785;23;20416;-96
2022/06/15 05:20:03;;;;;;;21.37;6.80;;;;;;;21.04;99.35;101021.97;6160927;23;20414;-89
2022/06/15 05:22:31;;;;;;;22.33;6.20;;;;;;;21.06;99.36;101032.84;6134383;23;20488;-88
2022/06/15 05:25:00;;;;;;;22.90;6.57;;;;;;;21.06;99.44;101039.25;6159541;23;20510;-89
2022/06/15 05:27:27;;;;;;;30.20;7.40;;;;;;;21.02;99.68;101040.84;6159284;23;20440;-89
2022/06/15 05:29:55;;;;;;;19.30;6.63;;;;;;;20.99;100.00;101052.47;6160035;23;20402;-88
2022/06/15 05:32:25;;;;;;;24.40;8.40;;;;;;;20.98;100.00;101032.16;6135897;23;20475;-89
2022/06/15 05:34:55;;;;;;;30.33;6.70;;;;;;;21.02;100.00;101021.38;6183708;23;20894;-88
2022/06/15 05:37:30;;;;;;;22.77;7.13;;;;;;;21.06;100.00;101014.22;6113426;23;20406;-90
2022/06/15 05:39:58;;;;;;;19.87;6.70;;;;;;;21.07;99.84;101004.78;6082540;23;20524;-88
2022/06/15 05:42:28;;;;;;;14.50;6.13;;;;;;;21.08;99.99;101006.47;6106868;23;20405;-88
2022/06/15 05:44:56;;;;;;;25.63;6.70;;;;;;;21.04;99.89;101006.13;6131464;23;20488;-88
2022/06/15 05:47:28;;;;;;;26.50;7.33;;;;;;;21.09;100.00;101016.50;6154032;23;20472;-89
2022/06/15 05:50:00;;;;;;;28.00;7.47;;;;;;;21.07;99.83;100999.22;6156206;23;20405;-87
2022/06/15 05:52:28;;;;;;;30.20;7.50;;;;;;;21.15;99.99;101017.41;6106466;23;20401;-88
2022/06/15 05:54:58;;;;;;;24.47;6.93;;;;;;;21.14;99.32;101038.81;6105084;23;20405;-88
2022/06/15 05:57:25;;;;;;;28.70;8.70;;;;;;;21.10;99.60;101082.09;6082003;23;20479;-89
2022/06/15 06:03:40;;;;;;;26.60;7.83;;;;;;;21.18;99.38;101022.44;6156995;23;20960;-95
2022/06/15 06:06:08;;;;;;;20.40;6.10;;;;;;;21.25;99.21;101045.38;6107790;23;20409;-95
2022/06/15 06:08:52;;;;;;;27.27;7.60;;;;;;;21.18;99.72;100992.69;6131755;23;20448;-95
2022/06/15 06:15:09;;;;;;;19.03;6.90;;;;;;;21.14;99.14;100958.19;6159557;23;20987;-93
2022/06/15 06:18:01;;;;;;;30.87;7.93;;;;;;;21.24;99.08;100988.91;6131941;23;20460;-95
2022/06/15 06:20:55;;;;;;;27.47;8.10;;;;;;;21.15;100.00;101007.13;6133988;23;20896;-95
2022/06/15 06:23:49;;;;;;;21.27;7.23;;;;;;;21.17;100.00;100992.94;6132635;23;20413;-94
2022/06/15 06:26:28;;;;;;;28.17;7.10;;;;;;;21.03;100.00;100978.59;6133022;23;20471;-95
2022/06/15 06:32:29;;;;;;;23.40;7.20;;;;;;;21.26;99.94;101020.09;6158523;23;20413;-95
2022/06/15 06:35:09;;;;;;;18.83;7.00;;;;;;;21.32;100.00;101040.47;6132750;23;20413;-96
2022/06/15 06:41:23;;;;;;;24.17;6.50;;;;;;;21.37;99.35;101043.28;6157069;23;20409;-95
2022/06/15 06:47:35;;;;;;;30.07;7.43;;;;;;;21.53;98.77;101080.53;6158979;23;20427;-96
2022/06/15 06:50:19;;;;;;;27.43;7.80;;;;;;;21.58;98.08;101109.22;6108679;23;20701;-95
2022/06/15 06:53:11;;;;;;;20.23;6.10;;;;;;;21.61;98.18;101096.75;6108116;23;20785;-95
2022/06/15 06:59:06;;;;;;;38.83;7.33;;;;;;;21.61;97.95;101058.63;6157540;23;20696;-91
2022/06/15 07:01:39;;;;;;;33.37;8.30;;;;;;;21.55;97.73;101022.69;6132169;23;20409;-91
2022/06/15 07:04:09;;;;;;;21.80;6.37;;;;;;;21.50;97.32;100981.75;6107230;23;20404;-91
2022/06/15 07:06:41;;;;;;;25.93;6.27;;;;;;;21.41;98.44;101051.97;6104332;23;20439;-90
2022/06/15 07:09:09;;;;;;;22.50;7.43;;;;;;;21.44;98.78;101023.66;6134340;23;20445;-88
2022/06/15 07:11:44;;;;;;;23.90;7.70;;;;;;;21.44;98.43;101057.88;6127649;23;20417;-92
2022/06/15 07:14:39;;;;;;;18.30;6.20;;;;;;;21.46;98.95;101063.16;6119627;23;20412;-90
2022/06/15 07:17:14;;;;;;;22.60;6.47;;;;;;;21.50;98.83;101037.38;6114285;23;20409;-89
2022/06/15 07:19:43;;;;;;;26.97;6.57;;;;;;;21.48;98.05;101030.38;6118661;23;20413;-90
2022/06/15 07:22:17;;;;;;;23.90;6.17;;;;;;;21.54;98.69;101032.13;6112253;23;20436;-90
2022/06/15 07:29:33;;;;;;;24.27;6.30;;;;;;;21.82;96.84;101048.59;6157157;23;20510;-89
2022/06/15 08:08:20;;;;;;;30.43;6.13;;;;;;;24.12;85.45;101130.94;6158546;23;20486;-88
2022/06/15 08:11:06;;;;;;;18.03;4.63;;;;;;;24.09;85.32;101115.56;6142197;23;20490;-91
2022/06/15 08:13:33;;;;;;;20.63;6.60;;;;;;;24.13;84.99;101104.69;6112292;23;20822;-90
2022/06/15 08:16:02;;;;;;;23.23;5.60;;;;;;;24.31;84.44;101117.34;6142408;23;20408;-88
2022/06/15 08:33:48;;;;;;;18.23;5.60;;;;;;;24.75;82.05;101110.13;5980709;23;20397;-96
2022/06/15 08:40:31;;;;;;;32.77;5.57;;;;;;;25.10;80.27;101128.03;6012687;23;20453;-95
2022/06/15 21:08:32;;;;;;;27.73;4.60;;;;;;;20.57;92.25;101366.81;6161320;23;20468;-87
2022/06/15 21:19:35;;;;;;;17.17;4.00;;;;;;;20.52;92.30;101363.91;6163972;23;20414;-87
2022/06/15 21:22:04;;;;;;;26.53;6.40;;;;;;;20.48;92.13;101361.84;6115547;23;20427;-86
2022/06/15 21:24:34;;;;;;;24.97;5.00;;;;;;;20.41;92.52;101361.97;6143641;23;20403;-86
2022/06/15 21:27:02;;;;;;;25.50;5.00;;;;;;;20.45;92.64;101374.28;6139196;23;20428;-89
2022/06/15 21:29:33;;;;;;;20.60;5.60;;;;;;;20.41;93.08;101383.34;6053066;23;20434;-92
2022/06/15 21:32:04;;;;;;;19.00;5.10;;;;;;;20.38;93.16;101390.25;6025828;23;21060;-92
2022/06/15 21:34:41;;;;;;;29.33;5.10;;;;;;;20.34;92.75;101391.78;6028295;23;20415;-90
2022/06/15 21:37:13;;;;;;;21.83;4.63;;;;;;;20.21;92.66;101375.34;6003305;23;20439;-92
2022/06/15 21:39:51;;;;;;;22.57;4.70;;;;;;;20.22;92.99;101379.81;6050140;23;20415;-92
2022/06/15 21:42:25;;;;;;;27.90;4.33;;;;;;;20.22;93.26;101374.28;6054535;23;20414;-92
2022/06/15 21:45:27;;;;;;;19.10;4.50;;;;;;;20.28;93.22;101385.25;6026110;23;20404;-92
2022/06/15 21:48:02;;;;;;;25.60;5.13;;;;;;;20.22;93.71;101382.59;6110864;23;20407;-93
2022/06/15 21:53:07;;;;;;;19.23;4.43;;;;;;;20.10;93.97;101373.44;6157287;23;20477;-91
2022/06/15 21:55:39;;;;;;;22.30;4.83;;;;;;;20.18;93.47;101396.16;6119456;23;20459;-92
2022/06/15 22:01:57;;;;;;;27.70;4.50;;;;;;;20.11;94.07;101389.00;6199404;23;20367;-92
2022/06/15 22:04:27;;;;;;;23.40;5.20;;;;;;;20.08;93.78;101392.25;6122903;23;20399;-91
2022/06/15 22:07:36;;;;;;;15.30;4.67;;;;;;;20.08;94.00;101401.44;6132359;23;20416;-92
2022/06/15 22:10:27;;;;;;;20.63;4.60;;;;;;;20.06;94.19;101391.66;6139711;23;20447;-91
2022/06/15 22:13:02;;;;;;;15.53;4.47;;;;;;;20.08;94.02;101406.13;6139926;23;20439;-90
2022/06/15 22:15:32;;;;;;;21.77;5.20;;;;;;;19.97;94.26;101389.25;6114799;23;20403;-90
2022/06/15 22:18:18;;;;;;;23.43;5.10;;;;;;;20.01;94.32;101397.94;6139541;23;20412;-90
2022/06/15 22:20:45;;;;;;;22.73;5.40;;;;;;;19.97;93.36;101389.25;6117087;23;20384;-91
2022/06/15 22:23:16;;;;;;;24.73;5.00;;;;;;;19.96;93.28;101386.72;6115130;23;20408;-91
2022/06/15 22:25:47;;;;;;;20.97;4.13;;;;;;;19.90;93.29;101388.53;6138429;23;20474;-91
2022/06/15 22:28:50;;;;;;;19.83;4.50;;;;;;;19.85;93.58;101393.94;6138107;23;20914;-91
2022/06/15 22:31:30;;;;;;;19.30;5.10;;;;;;;19.82;93.96;101399.94;6166043;23;20388;-91
2022/06/15 22:34:21;;;;;;;18.13;4.80;;;;;;;19.81;94.59;101403.84;6141349;23;20395;-91
2022/06/15 22:36:55;;;;;;;18.27;3.70;;;;;;;19.81;94.59;101406.63;6140073;23;20392;-91
2022/06/15 22:39:23;;;;;;;22.30;6.83;;;;;;;19.77;94.80;101410.94;6117588;23;20439;-93
2022/06/15 22:42:04;;;;;;;18.60;5.30;;;;;;;19.75;93.50;101417.81;6139711;23;20408;-92
2022/06/15 22:44:38;;;;;;;19.50;6.00;;;;;;;19.67;92.34;101421.75;6138977;23;20399;-92
2022/06/15 22:47:08;;;;;;;23.40;5.20;;;;;;;19.48;92.47;101412.63;6113332;23;20415;-91
2022/06/15 22:52:38;;;;;;;25.17;5.33;;;;;;;19.43;93.10;101436.63;6164874;23;20444;-92
2022/06/15 22:55:06;;;;;;;16.30;4.47;;;;;;;19.33;92.79;101431.63;6114113;23;20408;-92
2022/06/15 22:57:41;;;;;;;23.20;4.47;;;;;;;19.26;92.59;101437.25;6162567;23;20408;-92
2022/06/15 23:00:20;;;;;;;14.00;4.90;;;;;;;19.22;92.79;101441.59;6113658;23;20490;-91
2022/06/15 23:03:11;;;;;;;18.30;4.83;;;;;;;19.20;92.65;101435.44;6162370;23;20407;-92
2022/06/15 23:06:25;;;;;;;23.00;5.40;;;;;;;19.16;92.83;101436.13;6138798;23;20408;-92
2022/06/15 23:09:07;;;;;;;18.37;3.97;;;;;;;19.07;93.18;101426.44;6161738;23;20436;-92
2022/06/15 23:11:45;;;;;;;12.90;4.20;;;;;;;19.02;92.79;101429.94;6138458;23;20407;-92
2022/06/15 23:14:14;;;;;;;21.90;4.80;;;;;;;18.94;92.42;101444.09;6138068;23;20466;-92
2022/06/15 23:17:26;;;;;;;29.73;5.17;;;;;;;18.86;91.68;101449.94;6137419;23;20412;-92
2022/06/15 23:20:05;;;;;;;18.03;3.80;;;;;;;18.76;92.33;101441.31;6187950;23;20380;-92
2022/06/15 23:22:50;;;;;;;18.10;4.20;;;;;;;18.68;92.62;101439.69;6138259;23;20384;-93
2022/06/15 23:29:26;;;;;;;13.07;3.80;;;;;;;18.63;93.66;101437.66;6189413;23;20435;-92
2022/06/15 23:32:04;;;;;;;20.87;4.27;;;;;;;18.61;93.48;101431.50;6162325;23;20415;-93
2022/06/15 23:34:46;;;;;;;22.77;4.70;;;;;;;18.50;93.21;101428.59;6027401;23;20399;-92
2022/06/15 23:37:39;;;;;;;18.67;3.90;;;;;;;18.53;92.50;101444.75;6050464;23;20439;-92
2022/06/15 23:40:40;;;;;;;13.80;4.13;;;;;;;18.51;92.85;101452.41;6051673;23;20410;-93
2022/06/15 23:43:15;;;;;;;20.17;4.50;;;;;;;18.48;93.35;101455.66;6050055;23;20498;-91
2022/06/15 23:49:08;;;;;;;17.67;4.50;;;;;;;18.49;93.90;101438.81;6099146;23;20533;-92
2022/06/15 23:52:17;;;;;;;12.50;3.47;;;;;;;18.56;94.45;101431.28;6054067;23;20411;-92
2022/06/15 23:54:49;;;;;;;22.00;4.30;;;;;;;18.52;94.56;101418.13;6162776;23;20424;-92
2022/06/15 23:57:40;;;;;;;21.10;4.70;;;;;;;18.72;96.67;101423.47;6113957;23;20408;-92
